Time;durP1;ratioP1;P1;durP2;ratioP2;P2;SDS_P1;SDS_P2;PMS_P1;PMS_P2;Temp;Humidity;BMP_temperature;BMP_pressure;BME280_temperature;BME280_humidity;BME280_pressure;Samples;Min_cycle;Max_cycle;Signal;HPM_P1;HPM_P2
2023/02/17 00:01:14;;;;;;;17.70;11.53;;;11.90;99.90;;;;;;5075379;28;20441;-58
2023/02/17 00:03:41;;;;;;;14.07;11.70;;;11.90;99.90;;;;;;5075833;28;20452;-58
2023/02/17 00:06:09;;;;;;;17.43;11.80;;;11.90;99.90;;;;;;5075438;28;20469;-59
2023/02/17 00:08:38;;;;;;;18.23;10.67;;;11.80;99.90;;;;;;5076410;28;20481;-58
2023/02/17 00:11:05;;;;;;;16.27;11.07;;;11.80;99.90;;;;;;5076300;28;20834;-59
2023/02/17 00:13:37;;;;;;;15.13;10.57;;;11.80;99.90;;;;;;5075081;28;20440;-58
2023/02/17 00:16:07;;;;;;;13.90;12.00;;;11.80;99.90;;;;;;5074798;28;20468;-59
2023/02/17 00:18:34;;;;;;;15.90;11.57;;;11.90;99.90;;;;;;5075624;28;20448;-58
2023/02/17 00:21:01;;;;;;;12.53;10.67;;;11.90;99.90;;;;;;5077805;28;20476;-58
2023/02/17 00:23:27;;;;;;;19.03;11.70;;;11.80;99.90;;;;;;5075914;28;20464;-58
2023/02/17 00:25:55;;;;;;;13.77;11.30;;;11.80;99.90;;;;;;5074031;28;20461;-59
2023/02/17 00:28:22;;;;;;;16.37;11.40;;;11.80;99.90;;;;;;5074342;28;20507;-59
2023/02/17 00:30:49;;;;;;;14.50;11.00;;;11.90;99.90;;;;;;5074334;28;20453;-59
2023/02/17 00:33:15;;;;;;;19.30;11.70;;;11.90;99.90;;;;;;5074346;28;20448;-59
2023/02/17 00:35:42;;;;;;;16.90;11.30;;;11.80;99.90;;;;;;5074066;28;20485;-59
2023/02/17 00:38:09;;;;;;;14.73;10.90;;;11.80;99.90;;;;;;5074100;28;20457;-59
2023/02/17 00:40:35;;;;;;;12.07;10.80;;;11.80;99.90;;;;;;5074061;28;20452;-59
2023/02/17 00:43:04;;;;;;;18.03;10.67;;;11.80;99.90;;;;;;5073970;28;20445;-58
2023/02/17 00:45:30;;;;;;;18.00;9.97;;;11.90;99.90;;;;;;5074401;28;20465;-59
2023/02/17 00:47:57;;;;;;;19.50;10.57;;;11.90;99.90;;;;;;5073599;28;20452;-59
2023/02/17 00:50:24;;;;;;;13.80;11.50;;;11.80;99.90;;;;;;5073541;28;20588;-58
2023/02/17 00:52:50;;;;;;;15.80;11.63;;;11.80;99.90;;;;;;5073875;28;20457;-58
2023/02/17 00:55:17;;;;;;;14.73;11.20;;;11.80;99.90;;;;;;5073771;28;20461;-58
2023/02/17 00:57:44;;;;;;;13.43;10.20;;;11.80;99.90;;;;;;5073796;28;20475;-58
2023/02/17 01:00:13;;;;;;;11.27;10.10;;;11.80;99.90;;;;;;5073719;28;20502;-58
2023/02/17 01:02:40;;;;;;;25.53;11.70;;;11.70;99.90;;;;;;5073668;28;20444;-58
2023/02/17 01:05:07;;;;;;;15.33;10.40;;;11.70;99.90;;;;;;5073563;28;20476;-59
2023/02/17 01:07:36;;;;;;;12.27;10.20;;;11.70;99.90;;;;;;5073222;28;20772;-59
2023/02/17 01:10:03;;;;;;;10.60;9.10;;;11.70;99.90;;;;;;5073129;28;20495;-59
2023/02/17 01:12:29;;;;;;;13.90;10.63;;;11.80;99.90;;;;;;5073634;28;20451;-58
2023/02/17 01:14:56;;;;;;;14.53;9.63;;;11.70;99.90;;;;;;5073513;28;20477;-59
2023/02/17 01:17:24;;;;;;;12.00;9.20;;;11.80;99.90;;;;;;5073477;28;20448;-59
2023/02/17 01:19:51;;;;;;;19.43;12.60;;;11.70;99.90;;;;;;5073585;28;20445;-58
2023/02/17 01:22:18;;;;;;;11.23;9.23;;;11.70;99.90;;;;;;5073396;28;20451;-58
2023/02/17 01:24:44;;;;;;;17.33;10.00;;;11.70;99.90;;;;;;5073306;28;20536;-58
2023/02/17 01:27:11;;;;;;;15.27;9.20;;;11.70;99.90;;;;;;5073509;28;20452;-58
2023/02/17 01:29:38;;;;;;;12.80;9.00;;;11.80;99.90;;;;;;5073003;28;20838;-58
2023/02/17 01:32:05;;;;;;;16.37;9.60;;;11.80;99.90;;;;;;5073350;28;20444;-59
2023/02/17 01:34:33;;;;;;;16.93;9.67;;;11.80;99.90;;;;;;5073255;28;20472;-59
2023/02/17 01:36:59;;;;;;;11.00;8.80;;;11.80;99.90;;;;;;5073357;28;20441;-59
2023/02/17 01:39:26;;;;;;;13.23;9.40;;;11.80;99.90;;;;;;5073220;28;20456;-58
2023/02/17 01:41:53;;;;;;;11.70;8.40;;;11.80;99.90;;;;;;5072899;28;20905;-58
2023/02/17 01:44:21;;;;;;;10.47;9.03;;;11.70;99.90;;;;;;5073051;28;20448;-59
2023/02/17 01:46:51;;;;;;;11.13;9.40;;;11.70;99.90;;;;;;5073090;28;20451;-59
2023/02/17 01:49:24;;;;;;;14.50;10.60;;;11.70;99.90;;;;;;5073185;28;20484;-58
2023/02/17 01:51:56;;;;;;;10.83;8.60;;;11.80;99.90;;;;;;5073239;28;20438;-59
2023/02/17 01:54:27;;;;;;;10.67;8.17;;;11.80;99.90;;;;;;5072839;28;20922;-59
2023/02/17 01:56:57;;;;;;;10.50;9.40;;;11.80;99.90;;;;;;5073242;28;20437;-59
2023/02/17 01:59:24;;;;;;;15.73;9.33;;;11.70;99.90;;;;;;5073165;28;20433;-58
2023/02/17 02:01:55;;;;;;;12.30;9.50;;;11.80;99.90;;;;;;5073097;28;20452;-59
2023/02/17 02:04:25;;;;;;;13.30;9.33;;;11.80;99.90;;;;;;5072969;28;20440;-59
2023/02/17 02:06:54;;;;;;;11.47;9.90;;;11.80;99.90;;;;;;5072717;28;20467;-58
2023/02/17 02:09:26;;;;;;;10.63;8.17;;;11.80;99.90;;;;;;5072936;28;20494;-58
2023/02/17 02:11:52;;;;;;;18.63;8.93;;;11.80;99.90;;;;;;5072779;28;20429;-57
2023/02/17 02:14:21;;;;;;;13.33;9.73;;;11.80;99.90;;;;;;5072989;28;20425;-58
2023/02/17 02:16:54;;;;;;;11.10;9.73;;;11.80;99.90;;;;;;5072888;28;20535;-58
2023/02/17 02:20:01;;;;;;;13.33;10.70;;;11.80;99.90;;;;;;5073361;28;20432;-58
2023/02/17 02:22:50;;;;;;;15.20;10.63;;;11.80;99.90;;;;;;5076343;28;20502;-58
2023/02/17 02:25:33;;;;;;;11.23;9.70;;;11.80;99.90;;;;;;5076286;28;20479;-58
2023/02/17 02:28:15;;;;;;;11.43;9.10;;;11.80;99.90;;;;;;5076737;28;20428;-58
2023/02/17 02:30:52;;;;;;;12.80;9.43;;;11.80;99.90;;;;;;5076624;28;20465;-58
2023/02/17 02:33:30;;;;;;;9.67;8.43;;;11.80;99.90;;;;;;5076580;28;20478;-58
2023/02/17 02:36:03;;;;;;;13.60;10.60;;;11.80;99.90;;;;;;5076522;28;20460;-58
2023/02/17 02:38:35;;;;;;;12.17;8.67;;;11.80;99.90;;;;;;5076368;28;20462;-58
2023/02/17 02:41:07;;;;;;;12.43;10.10;;;11.80;99.90;;;;;;5075953;28;20431;-58
2023/02/17 02:43:34;;;;;;;15.87;9.60;;;11.90;99.90;;;;;;5076254;28;20437;-58
2023/02/17 02:46:01;;;;;;;12.80;10.23;;;11.90;99.90;;;;;;5076710;28;20469;-56
2023/02/17 02:48:29;;;;;;;10.63;9.53;;;11.90;99.90;;;;;;5075903;28;20478;-56
2023/02/17 02:51:03;;;;;;;10.53;9.43;;;11.90;99.90;;;;;;5076101;28;20492;-56
2023/02/17 02:53:58;;;;;;;11.60;10.40;;;11.90;99.90;;;;;;5075874;28;20924;-56
2023/02/17 02:56:35;;;;;;;11.00;9.47;;;11.90;99.90;;;;;;5075762;28;20469;-58
2023/02/17 02:59:11;;;;;;;15.93;10.00;;;11.90;99.90;;;;;;5076113;28;20512;-56
2023/02/17 03:01:58;;;;;;;12.60;10.47;;;11.90;99.90;;;;;;5075767;28;20952;-56
2023/02/17 03:04:35;;;;;;;10.70;9.43;;;11.90;99.90;;;;;;5075902;28;20448;-57
2023/02/17 03:07:08;;;;;;;10.70;9.00;;;11.90;99.90;;;;;;5076021;28;20439;-56
2023/02/17 03:09:36;;;;;;;10.93;9.83;;;11.80;99.90;;;;;;5075868;28;20475;-56
2023/02/17 03:12:03;;;;;;;12.40;10.30;;;11.80;99.90;;;;;;5075951;28;20432;-57
2023/02/17 03:14:37;;;;;;;12.77;10.73;;;11.80;99.90;;;;;;5075814;28;20498;-57
2023/02/17 03:17:03;;;;;;;12.50;11.20;;;11.80;99.90;;;;;;5075760;28;20429;-57
2023/02/17 03:19:31;;;;;;;13.43;9.93;;;11.90;99.90;;;;;;5075839;28;20432;-57
2023/02/17 03:22:05;;;;;;;11.40;9.57;;;11.90;99.90;;;;;;5075395;28;20445;-57
2023/02/17 03:24:33;;;;;;;14.93;11.07;;;11.90;99.90;;;;;;5075616;28;20465;-57
2023/02/17 03:27:00;;;;;;;13.20;9.83;;;11.90;99.90;;;;;;5075351;28;20975;-57
2023/02/17 03:29:26;;;;;;;14.33;10.40;;;11.90;99.90;;;;;;5075654;28;20507;-57
2023/02/17 03:31:53;;;;;;;11.90;9.60;;;11.90;99.90;;;;;;5074867;28;20452;-57
2023/02/17 03:34:20;;;;;;;10.73;9.50;;;11.90;99.90;;;;;;5075352;28;20464;-57
2023/02/17 03:36:48;;;;;;;13.67;9.57;;;11.90;99.90;;;;;;5075477;28;20429;-57
2023/02/17 03:39:15;;;;;;;11.90;10.40;;;11.90;99.90;;;;;;5075028;28;20455;-57
2023/02/17 03:41:42;;;;;;;11.50;10.00;;;11.90;99.90;;;;;;5074958;28;20949;-57
2023/02/17 03:44:08;;;;;;;13.77;9.90;;;11.90;99.90;;;;;;5075119;28;20441;-57
2023/02/17 03:46:35;;;;;;;11.73;10.57;;;11.90;99.90;;;;;;5074718;28;20476;-57
2023/02/17 03:49:02;;;;;;;11.43;10.27;;;11.90;99.90;;;;;;5074686;28;20457;-57
2023/02/17 03:51:28;;;;;;;12.70;10.23;;;12.00;99.90;;;;;;5075085;28;20461;-57
2023/02/17 03:53:56;;;;;;;11.37;10.17;;;12.00;99.90;;;;;;5075138;28;20445;-57
2023/02/17 03:56:23;;;;;;;16.03;9.87;;;12.00;99.90;;;;;;5074850;28;20855;-57
2023/02/17 03:58:50;;;;;;;11.53;10.40;;;12.00;99.90;;;;;;5074822;28;20449;-57
2023/02/17 04:01:17;;;;;;;12.07;9.70;;;12.00;99.90;;;;;;5074378;28;20841;-57
2023/02/17 04:03:43;;;;;;;10.10;9.10;;;12.00;99.90;;;;;;5074702;28;20456;-57
2023/02/17 04:06:11;;;;;;;13.33;9.90;;;12.00;99.90;;;;;;5074589;28;20471;-57
2023/02/17 04:08:38;;;;;;;14.50;11.17;;;12.00;99.90;;;;;;5074696;28;20475;-57
2023/02/17 04:11:09;;;;;;;14.90;9.77;;;12.00;99.90;;;;;;5074310;28;20860;-57
2023/02/17 04:13:36;;;;;;;11.60;10.10;;;12.00;99.90;;;;;;5075446;28;20436;-57
2023/02/17 04:16:04;;;;;;;13.50;10.87;;;12.00;99.90;;;;;;5074485;28;20476;-56
2023/02/17 04:18:31;;;;;;;13.80;10.10;;;12.00;99.90;;;;;;5074062;28;20832;-57
2023/02/17 04:20:58;;;;;;;11.27;9.63;;;11.90;99.90;;;;;;5074472;28;20440;-57
2023/02/17 04:23:25;;;;;;;11.07;9.87;;;11.90;99.90;;;;;;5074405;28;20456;-57
2023/02/17 04:25:52;;;;;;;12.70;9.23;;;12.00;99.90;;;;;;5074116;28;20468;-57
2023/02/17 04:28:21;;;;;;;14.83;9.50;;;12.00;99.90;;;;;;5074478;28;20437;-57
2023/02/17 04:30:49;;;;;;;10.37;9.23;;;12.00;99.90;;;;;;5074113;28;20476;-57
2023/02/17 04:33:16;;;;;;;13.53;10.10;;;12.00;99.90;;;;;;5074275;28;20437;-57
2023/02/17 04:35:43;;;;;;;11.90;9.73;;;12.00;99.90;;;;;;5074164;28;20476;-57
2023/02/17 04:38:10;;;;;;;11.43;10.03;;;12.00;99.90;;;;;;5074249;28;20437;-57
2023/02/17 04:40:38;;;;;;;11.23;8.30;;;12.00;99.90;;;;;;5073890;28;20447;-57
2023/02/17 04:43:05;;;;;;;10.40;9.00;;;12.00;99.90;;;;;;5073919;28;20867;-57
2023/02/17 04:45:34;;;;;;;16.27;10.33;;;11.90;99.90;;;;;;5074069;28;20473;-57
2023/02/17 04:48:01;;;;;;;10.20;8.00;;;12.00;99.90;;;;;;5073795;28;20554;-57
2023/02/17 04:50:27;;;;;;;10.80;8.50;;;12.00;99.90;;;;;;5074547;28;20498;-57
2023/02/17 04:52:54;;;;;;;10.10;7.93;;;12.00;99.90;;;;;;5074084;28;20456;-57
2023/02/17 04:55:21;;;;;;;9.80;8.80;;;12.00;99.90;;;;;;5074569;28;20477;-57
2023/02/17 04:57:48;;;;;;;10.10;8.23;;;12.00;99.90;;;;;;5074161;28;20432;-57
2023/02/17 05:00:15;;;;;;;9.67;8.73;;;12.00;99.90;;;;;;5074377;28;20453;-57
2023/02/17 05:02:43;;;;;;;11.83;9.67;;;12.00;99.90;;;;;;5074584;28;20437;-57
2023/02/17 05:05:13;;;;;;;9.77;8.77;;;12.00;99.90;;;;;;5074163;28;20473;-57
2023/02/17 05:07:41;;;;;;;9.80;8.80;;;12.00;99.90;;;;;;5074555;28;20433;-57
2023/02/17 05:10:08;;;;;;;11.87;8.73;;;12.00;99.90;;;;;;5074403;28;20464;-57
2023/02/17 05:12:35;;;;;;;8.73;7.93;;;12.00;99.90;;;;;;5074009;28;20468;-57
2023/02/17 05:15:02;;;;;;;12.30;9.10;;;12.00;99.90;;;;;;5073606;28;21012;-57
2023/02/17 05:17:28;;;;;;;9.73;8.80;;;12.00;99.90;;;;;;5073931;28;20456;-57
2023/02/17 05:19:56;;;;;;;8.40;7.50;;;12.00;99.90;;;;;;5074059;28;20468;-57
2023/02/17 05:22:23;;;;;;;12.60;8.80;;;12.00;99.90;;;;;;5074187;28;20531;-57
2023/02/17 05:24:50;;;;;;;10.40;7.97;;;12.00;99.90;;;;;;5073800;28;20840;-57
2023/02/17 05:27:17;;;;;;;9.07;8.27;;;12.00;99.90;;;;;;5074573;28;20448;-57
2023/02/17 05:29:44;;;;;;;12.37;8.50;;;12.00;99.90;;;;;;5074839;28;20475;-57
2023/02/17 05:32:11;;;;;;;9.70;8.70;;;12.00;99.90;;;;;;5074053;28;20453;-57
2023/02/17 05:34:38;;;;;;;11.73;8.83;;;12.00;99.90;;;;;;5074385;28;20465;-57
2023/02/17 05:37:06;;;;;;;12.30;8.47;;;12.00;99.90;;;;;;5074455;28;20433;-57
2023/02/17 05:39:32;;;;;;;11.83;7.80;;;12.00;99.90;;;;;;5075045;28;20493;-57
2023/02/17 05:41:59;;;;;;;12.77;8.63;;;12.00;99.90;;;;;;5074668;28;20979;-57
2023/02/17 05:44:26;;;;;;;10.07;8.97;;;12.00;99.90;;;;;;5073964;28;20460;-57
2023/02/17 05:46:52;;;;;;;18.60;9.37;;;12.00;99.90;;;;;;5073997;28;20456;-57
2023/02/17 05:49:19;;;;;;;13.37;8.33;;;11.90;99.90;;;;;;5073854;28;20444;-57
2023/02/17 05:51:46;;;;;;;14.20;8.73;;;11.90;99.90;;;;;;5074466;28;20468;-57
2023/02/17 05:54:14;;;;;;;13.50;8.20;;;12.00;99.90;;;;;;5074412;28;20828;-58
2023/02/17 05:56:40;;;;;;;12.63;8.53;;;12.00;99.90;;;;;;5078697;28;20444;-57
2023/02/17 05:59:07;;;;;;;11.80;8.73;;;12.00;99.90;;;;;;5078435;28;20448;-57
2023/02/17 06:01:34;;;;;;;13.03;8.83;;;12.00;99.90;;;;;;5079911;28;20449;-57
2023/02/17 06:04:01;;;;;;;14.50;8.70;;;12.00;99.90;;;;;;5081277;28;20436;-57
2023/02/17 06:06:27;;;;;;;13.97;8.30;;;12.00;99.90;;;;;;5080016;28;20486;-57
2023/02/17 06:08:54;;;;;;;15.93;9.13;;;12.10;99.90;;;;;;5078831;28;20453;-57
2023/02/17 06:11:22;;;;;;;11.13;8.93;;;12.00;99.90;;;;;;5081239;28;20870;-57
2023/02/17 06:13:49;;;;;;;11.37;8.07;;;12.00;99.90;;;;;;5079552;28;20446;-57
2023/02/17 06:16:16;;;;;;;14.10;8.10;;;12.00;99.90;;;;;;5079373;28;20464;-57
2023/02/17 06:18:42;;;;;;;14.53;8.30;;;12.00;99.90;;;;;;5078591;28;20454;-57
2023/02/17 06:21:09;;;;;;;18.50;8.87;;;12.00;99.90;;;;;;5078038;28;20498;-57
2023/02/17 06:23:36;;;;;;;10.23;7.70;;;12.00;99.90;;;;;;5077934;28;20466;-57
2023/02/17 06:26:03;;;;;;;16.40;9.20;;;12.00;99.90;;;;;;5078025;28;20476;-57
2023/02/17 06:28:31;;;;;;;12.77;8.60;;;12.00;99.90;;;;;;5078525;28;20841;-57
2023/02/17 06:30:57;;;;;;;8.70;7.80;;;12.00;99.90;;;;;;5077932;28;20471;-57
2023/02/17 06:33:24;;;;;;;16.00;8.97;;;12.00;99.90;;;;;;5078169;28;20436;-57
2023/02/17 06:35:51;;;;;;;23.37;8.53;;;12.00;99.90;;;;;;5078342;28;20468;-57
2023/02/17 06:38:18;;;;;;;22.97;9.83;;;12.00;99.90;;;;;;5077998;28;20429;-57
2023/02/17 06:40:45;;;;;;;12.90;8.77;;;12.00;99.90;;;;;;5078640;28;20451;-57
2023/02/17 06:43:12;;;;;;;9.67;8.00;;;12.00;99.90;;;;;;5078247;28;20448;-57
2023/02/17 06:45:40;;;;;;;10.77;8.10;;;12.00;99.90;;;;;;5076649;28;20487;-57
2023/02/17 06:48:07;;;;;;;18.03;10.17;;;12.00;99.90;;;;;;5076410;28;20472;-57
2023/02/17 06:50:33;;;;;;;19.03;9.40;;;12.00;99.90;;;;;;5076505;28;20488;-57
2023/02/17 06:53:01;;;;;;;17.00;10.03;;;12.00;99.90;;;;;;5076580;28;20441;-57
2023/02/17 06:55:28;;;;;;;11.43;8.57;;;12.00;99.90;;;;;;5076557;28;20475;-57
2023/02/17 06:57:55;;;;;;;13.53;8.80;;;12.00;99.90;;;;;;5076839;28;20440;-57
2023/02/17 07:00:22;;;;;;;8.10;7.27;;;12.00;99.90;;;;;;5076201;28;20429;-57
2023/02/17 07:02:50;;;;;;;11.10;7.80;;;12.00;99.90;;;;;;5076163;28;20433;-57
2023/02/17 07:05:17;;;;;;;24.50;8.97;;;12.00;99.90;;;;;;5075807;28;20468;-57
2023/02/17 07:07:44;;;;;;;15.50;8.33;;;12.00;99.90;;;;;;5076086;28;20441;-57
2023/02/17 07:10:11;;;;;;;13.80;7.50;;;12.00;99.90;;;;;;5075940;28;20429;-55
2023/02/17 07:12:38;;;;;;;13.63;8.97;;;12.00;99.90;;;;;;5075959;28;20452;-55
2023/02/17 07:15:05;;;;;;;13.83;9.80;;;12.00;99.90;;;;;;5075834;28;20476;-57
2023/02/17 07:17:32;;;;;;;15.60;8.90;;;12.00;99.90;;;;;;5075882;28;20440;-56
2023/02/17 07:20:00;;;;;;;8.53;7.57;;;12.00;99.90;;;;;;5075898;28;20433;-56
2023/02/17 07:22:27;;;;;;;10.20;8.00;;;12.00;99.90;;;;;;5075797;28;20452;-56
2023/02/17 07:24:53;;;;;;;9.60;7.73;;;11.90;99.90;;;;;;5075678;28;20467;-56
2023/02/17 07:27:20;;;;;;;12.20;7.83;;;12.00;99.90;;;;;;5075665;28;20448;-56
2023/02/17 07:29:47;;;;;;;10.53;7.37;;;12.00;99.90;;;;;;5075612;28;20445;-56
2023/02/17 07:32:13;;;;;;;16.33;9.40;;;12.00;99.90;;;;;;5075544;28;20469;-57
2023/02/17 07:34:40;;;;;;;10.73;8.03;;;12.00;99.90;;;;;;5075503;28;20472;-57
2023/02/17 07:37:09;;;;;;;16.53;8.37;;;12.00;99.90;;;;;;5075509;28;20791;-56
2023/02/17 07:39:35;;;;;;;11.73;7.40;;;12.00;99.90;;;;;;5075482;28;20445;-56
2023/02/17 07:42:03;;;;;;;13.87;7.73;;;12.10;99.90;;;;;;5075396;28;20448;-56
2023/02/17 07:44:30;;;;;;;9.17;8.27;;;12.10;99.90;;;;;;5074949;28;20455;-57
2023/02/17 07:46:57;;;;;;;11.67;8.10;;;12.10;99.90;;;;;;5075229;28;20437;-57
2023/02/17 07:49:24;;;;;;;10.50;7.27;;;12.10;99.90;;;;;;5075281;28;20436;-56
2023/02/17 07:51:51;;;;;;;11.50;9.03;;;12.10;99.90;;;;;;5075088;28;20484;-56
2023/02/17 07:54:19;;;;;;;12.03;8.20;;;12.20;99.90;;;;;;5075079;28;20456;-57
2023/02/17 07:56:45;;;;;;;9.20;7.80;;;12.10;99.90;;;;;;5075216;28;20433;-56
2023/02/17 07:59:13;;;;;;;14.63;9.40;;;12.20;99.90;;;;;;5075039;28;20448;-56
2023/02/17 08:01:40;;;;;;;17.20;8.97;;;12.10;99.90;;;;;;5075063;28;20428;-56
2023/02/17 08:04:07;;;;;;;13.07;8.10;;;12.20;99.90;;;;;;5074879;28;20459;-56
2023/02/17 08:06:34;;;;;;;14.23;8.33;;;12.10;99.90;;;;;;5074861;28;20477;-57
2023/02/17 08:14:32;;;;;;;12.23;7.33;;;12.30;99.90;;;;;;5074672;28;20487;-57
2023/02/17 08:16:58;;;;;;;8.63;7.43;;;12.30;99.90;;;;;;5073959;28;20990;-57
2023/02/17 08:19:25;;;;;;;12.77;7.93;;;12.40;99.90;;;;;;5074503;28;20457;-56
2023/02/17 08:21:53;;;;;;;12.07;7.80;;;12.40;99.90;;;;;;5074419;28;21032;-57
2023/02/17 08:24:20;;;;;;;17.60;7.97;;;12.40;99.90;;;;;;5074495;28;20453;-57
2023/02/17 08:26:48;;;;;;;16.20;7.20;;;12.50;99.90;;;;;;5074498;28;20859;-57
2023/02/17 08:29:15;;;;;;;15.03;7.87;;;12.50;99.90;;;;;;5075382;28;20788;-57
2023/02/17 08:31:42;;;;;;;10.00;7.27;;;12.60;99.90;;;;;;5074349;28;20489;-57
2023/02/17 08:34:12;;;;;;;13.90;8.57;;;12.60;99.90;;;;;;5074391;28;20441;-56
2023/02/17 08:36:39;;;;;;;9.23;7.40;;;12.60;99.90;;;;;;5074327;28;20471;-57
2023/02/17 08:39:10;;;;;;;8.40;6.47;;;12.60;99.90;;;;;;5074285;28;20461;-57
2023/02/17 08:41:38;;;;;;;11.93;7.33;;;12.60;99.90;;;;;;5074284;28;20429;-57
2023/02/17 08:44:10;;;;;;;14.00;7.83;;;12.70;99.90;;;;;;5073869;28;20943;-57
2023/02/17 08:46:37;;;;;;;22.73;9.27;;;12.80;99.90;;;;;;5074033;28;20471;-56
2023/02/17 08:49:04;;;;;;;10.40;6.70;;;12.80;99.90;;;;;;5073928;28;20486;-57
2023/02/17 08:51:31;;;;;;;15.57;7.03;;;12.80;99.90;;;;;;5073991;28;20472;-57
2023/02/17 08:54:00;;;;;;;9.87;6.83;;;12.90;99.90;;;;;;5073974;28;20815;-57
2023/02/17 08:56:28;;;;;;;13.93;6.40;;;13.00;99.90;;;;;;5073981;28;20530;-57
2023/02/17 08:58:54;;;;;;;9.00;6.77;;;12.90;99.90;;;;;;5074582;28;20461;-57
2023/02/17 09:01:23;;;;;;;9.80;6.20;;;13.00;99.90;;;;;;5074039;28;20522;-57
2023/02/17 09:03:52;;;;;;;9.50;6.50;;;13.00;99.90;;;;;;5073846;28;20484;-57
2023/02/17 09:06:20;;;;;;;8.33;6.37;;;13.00;99.90;;;;;;5074058;28;20504;-57
2023/02/17 09:08:47;;;;;;;11.60;6.90;;;13.10;99.90;;;;;;5073908;28;20433;-57
2023/02/17 09:11:16;;;;;;;17.13;6.50;;;13.10;99.90;;;;;;5073582;28;20969;-56
2023/02/17 09:13:43;;;;;;;11.77;6.30;;;13.10;99.90;;;;;;5073698;28;20453;-56
2023/02/17 09:16:10;;;;;;;12.33;7.07;;;13.20;99.90;;;;;;5073341;28;21000;-56
2023/02/17 09:18:38;;;;;;;19.23;7.77;;;13.20;99.90;;;;;;5073898;28;20448;-56
2023/02/17 09:21:07;;;;;;;11.10;6.77;;;13.30;99.90;;;;;;5073339;28;20787;-56
2023/02/17 09:23:33;;;;;;;12.23;6.03;;;13.30;99.90;;;;;;5073718;28;20452;-57
2023/02/17 09:26:05;;;;;;;11.80;6.33;;;13.30;99.90;;;;;;5073528;28;20472;-56
2023/02/17 09:28:32;;;;;;;8.80;7.07;;;13.30;99.90;;;;;;5073287;28;20445;-57
2023/02/17 09:30:59;;;;;;;14.60;6.37;;;13.30;99.90;;;;;;5072953;28;20491;-57
2023/02/17 09:33:26;;;;;;;9.33;5.90;;;13.40;99.90;;;;;;5073247;28;20452;-57
2023/02/17 09:35:54;;;;;;;11.70;6.30;;;13.50;99.90;;;;;;5073404;28;20473;-57
2023/02/17 09:38:22;;;;;;;16.23;5.43;;;13.50;99.90;;;;;;5073521;28;20440;-56
2023/02/17 09:40:51;;;;;;;19.13;7.17;;;13.60;99.90;;;;;;5073924;28;20507;-56
2023/02/17 09:43:21;;;;;;;12.50;5.80;;;13.60;99.90;;;;;;5073616;28;20439;-57
2023/02/17 09:45:52;;;;;;;17.63;7.03;;;13.60;99.90;;;;;;5073329;28;20836;-57
2023/02/17 09:48:23;;;;;;;20.70;5.70;;;13.60;99.90;;;;;;5073497;28;20465;-57
2023/02/17 09:50:56;;;;;;;11.47;5.33;;;13.60;99.90;;;;;;5072962;28;20844;-57
2023/02/17 09:53:30;;;;;;;17.17;5.63;;;13.70;99.90;;;;;;5073866;28;20437;-57
2023/02/17 09:55:59;;;;;;;9.27;5.63;;;13.80;99.90;;;;;;5072836;28;20885;-57
2023/02/17 09:58:31;;;;;;;15.73;5.63;;;13.90;99.90;;;;;;5073241;28;20429;-57
2023/02/17 10:01:01;;;;;;;13.53;5.90;;;14.00;99.90;;;;;;5073227;28;20425;-57
2023/02/17 10:03:33;;;;;;;22.00;6.00;;;14.00;99.90;;;;;;5072944;28;20795;-57
2023/02/17 10:06:10;;;;;;;6.93;4.60;;;14.00;99.90;;;;;;5073547;28;20876;-56
2023/02/17 10:08:43;;;;;;;8.93;5.30;;;14.00;99.90;;;;;;5073198;28;20789;-57
2023/02/17 10:11:18;;;;;;;12.00;4.80;;;14.10;99.90;;;;;;5073113;28;20476;-57
2023/02/17 10:13:46;;;;;;;11.83;4.70;;;14.00;99.90;;;;;;5073216;28;20462;-57
2023/02/17 10:16:21;;;;;;;13.43;4.90;;;14.00;99.90;;;;;;5073030;28;20464;-57
2023/02/17 10:18:54;;;;;;;13.07;5.70;;;14.10;99.90;;;;;;5072731;28;20432;-57
2023/02/17 10:21:27;;;;;;;16.53;4.60;;;14.20;99.90;;;;;;5073069;28;20434;-57
2023/02/17 10:23:54;;;;;;;24.37;6.37;;;14.30;99.90;;;;;;5073078;28;20444;-57
2023/02/17 10:26:30;;;;;;;16.27;5.67;;;14.40;99.90;;;;;;5072934;28;20461;-57
2023/02/17 10:29:03;;;;;;;12.40;5.10;;;14.50;99.90;;;;;;5073025;28;20456;-56
2023/02/17 10:31:43;;;;;;;8.73;4.60;;;14.60;99.90;;;;;;5073024;28;20512;-57
2023/02/17 10:34:17;;;;;;;15.27;4.50;;;14.60;99.90;;;;;;5072863;28;20460;-57
2023/02/17 10:36:53;;;;;;;9.30;4.97;;;14.70;99.90;;;;;;5072891;28;20440;-57
2023/02/17 10:39:34;;;;;;;17.10;5.40;;;14.80;99.90;;;;;;5073502;28;20508;-57
2023/02/17 10:42:02;;;;;;;18.50;5.60;;;14.80;99.90;;;;;;5075905;28;20428;-57
2023/02/17 10:44:33;;;;;;;9.27;4.27;;;14.70;99.90;;;;;;5076502;28;20445;-57
2023/02/17 10:47:00;;;;;;;5.10;4.33;;;14.70;99.90;;;;;;5076407;28;20436;-58
2023/02/17 10:49:30;;;;;;;16.00;4.80;;;14.70;99.90;;;;;;5076458;28;20436;-57
2023/02/17 10:52:01;;;;;;;17.03;5.40;;;14.60;99.90;;;;;;5076393;28;20472;-57
2023/02/17 10:54:32;;;;;;;15.73;5.40;;;14.50;99.90;;;;;;5076569;28;20451;-57
2023/02/17 10:57:02;;;;;;;10.57;5.07;;;14.50;99.90;;;;;;5076352;28;20435;-57
2023/02/17 10:59:33;;;;;;;13.00;6.00;;;14.50;99.90;;;;;;5076283;28;20807;-57
2023/02/17 11:02:14;;;;;;;5.10;4.33;;;14.50;99.90;;;;;;5075994;28;20897;-57
2023/02/17 11:04:42;;;;;;;5.60;4.77;;;14.50;99.90;;;;;;5076147;28;20472;-57
2023/02/17 11:07:12;;;;;;;7.97;4.30;;;14.60;99.90;;;;;;5076891;28;20467;-57
2023/02/17 11:09:45;;;;;;;5.50;4.13;;;14.60;99.90;;;;;;5076214;28;20429;-57
2023/02/17 11:12:14;;;;;;;7.53;4.00;;;14.70;99.90;;;;;;5075942;28;20469;-57
2023/02/17 11:14:46;;;;;;;9.63;4.20;;;14.70;99.90;;;;;;5075851;28;20468;-58
2023/02/17 11:17:18;;;;;;;8.27;4.80;;;14.70;99.90;;;;;;5075627;28;20936;-57
2023/02/17 11:19:55;;;;;;;10.57;4.33;;;14.80;99.90;;;;;;5076436;28;20455;-57
2023/02/17 11:22:37;;;;;;;6.23;4.10;;;14.80;99.90;;;;;;5076360;28;20424;-57
2023/02/17 11:25:07;;;;;;;9.73;4.33;;;14.90;99.90;;;;;;5075717;28;20469;-58
2023/02/17 11:27:34;;;;;;;12.50;4.50;;;14.80;99.90;;;;;;5075902;28;20430;-57
2023/02/17 11:30:09;;;;;;;12.83;5.00;;;14.80;99.90;;;;;;5076362;28;20452;-57
2023/02/17 11:32:36;;;;;;;9.10;4.67;;;15.00;99.90;;;;;;5075725;28;20483;-58
2023/02/17 11:35:05;;;;;;;10.70;4.63;;;15.00;99.90;;;;;;5075591;28;20469;-57
2023/02/17 11:37:42;;;;;;;13.30;4.50;;;15.10;99.90;;;;;;5075545;28;20932;-58
2023/02/17 11:40:23;;;;;;;20.60;5.40;;;15.10;99.90;;;;;;5076419;28;20433;-58
2023/02/17 11:42:56;;;;;;;18.37;4.87;;;15.20;99.90;;;;;;5075430;28;20452;-58
2023/02/17 11:45:24;;;;;;;10.00;4.70;;;15.30;99.70;;;;;;5076031;28;20500;-58
2023/02/17 11:48:00;;;;;;;7.40;4.30;;;15.40;99.60;;;;;;5075744;28;20559;-58
2023/02/17 11:50:31;;;;;;;24.47;5.17;;;15.40;99.20;;;;;;5075503;28;20440;-57
2023/02/17 11:53:31;;;;;;;19.40;5.43;;;15.40;99.30;;;;;;5074078;28;20919;-58
2023/02/17 11:56:10;;;;;;;12.07;3.87;;;15.50;99.10;;;;;;5069950;28;20839;-58
2023/02/17 11:58:51;;;;;;;10.47;5.23;;;15.50;98.90;;;;;;5075607;28;20451;-57
2023/02/17 12:01:29;;;;;;;7.83;4.67;;;15.50;99.20;;;;;;5075275;28;20441;-57
2023/02/17 12:04:15;;;;;;;15.93;5.23;;;15.50;99.10;;;;;;5075200;28;20487;-57
2023/02/17 12:06:52;;;;;;;11.00;4.40;;;15.40;99.70;;;;;;5075338;28;20816;-56
2023/02/17 12:09:29;;;;;;;12.53;3.90;;;15.30;99.50;;;;;;5075469;28;20433;-56
2023/02/17 12:12:03;;;;;;;9.30;3.87;;;15.20;99.90;;;;;;5074657;28;20980;-56
2023/02/17 12:14:46;;;;;;;10.67;3.90;;;15.20;99.90;;;;;;5075008;28;20429;-57
2023/02/17 12:17:19;;;;;;;8.17;4.53;;;15.20;99.90;;;;;;5075190;28;20441;-57
2023/02/17 12:19:57;;;;;;;9.33;4.37;;;15.30;99.90;;;;;;5075557;28;20433;-57
2023/02/17 12:22:28;;;;;;;10.40;3.60;;;15.30;99.50;;;;;;5075146;28;20491;-56
2023/02/17 12:25:21;;;;;;;12.53;3.90;;;15.20;99.30;;;;;;5075115;28;20469;-57
2023/02/17 12:27:56;;;;;;;13.23;3.70;;;15.10;99.60;;;;;;5075785;28;20433;-57
2023/02/17 12:30:32;;;;;;;23.93;4.93;;;15.10;99.50;;;;;;5075314;28;20429;-56
2023/02/17 12:33:25;;;;;;;11.37;3.70;;;15.20;99.70;;;;;;5075001;28;20972;-56
2023/02/17 12:36:13;;;;;;;9.43;3.60;;;15.40;99.10;;;;;;5074991;28;20882;-56
2023/02/17 12:38:59;;;;;;;17.83;4.20;;;15.70;98.70;;;;;;5075462;28;20441;-57
2023/02/17 12:41:33;;;;;;;11.67;3.87;;;16.00;97.80;;;;;;5075830;28;20425;-57
2023/02/17 12:44:03;;;;;;;13.07;2.93;;;16.00;97.20;;;;;;5075787;28;20917;-57
2023/02/17 12:46:34;;;;;;;11.47;3.43;;;16.00;97.20;;;;;;5075027;28;20475;-57
2023/02/17 12:49:09;;;;;;;10.70;3.87;;;15.90;97.30;;;;;;5074251;28;20452;-56
2023/02/17 12:51:40;;;;;;;9.77;3.60;;;16.00;97.00;;;;;;5074644;28;20440;-56
2023/02/17 12:54:15;;;;;;;9.90;4.50;;;16.00;96.80;;;;;;5076288;28;20437;-56